Time;durP1;ratioP1;P1;durP2;ratioP2;P2;SDS_P1;SDS_P2;PMS_P1;PMS_P2;Temp;Humidity;BMP_temperature;BMP_pressure;BME280_temperature;BME280_humidity;BME280_pressure;Samples;Min_cycle;Max_cycle;Signal;HPM_P1;HPM_P2
2021/08/09 00:01:43;;;;;;;;;;;21.40;61.90;;;;;;491563;240;1198;-46
2021/08/09 00:03:45;;;;;;;;;;;21.40;62.00;;;;;;491924;240;961;-46
2021/08/09 00:05:46;;;;;;;;;;;21.40;61.90;;;;;;492049;240;1242;-45
2021/08/09 00:07:48;;;;;;;;;;;21.40;61.90;;;;;;491519;240;2133;-46
2021/08/09 00:09:49;;;;;;;;;;;21.50;61.80;;;;;;491675;240;1080;-46
2021/08/09 00:11:50;;;;;;;;;;;21.40;61.70;;;;;;491940;240;1143;-46
2021/08/09 00:13:52;;;;;;;;;;;21.60;61.70;;;;;;491791;240;1039;-46
2021/08/09 00:15:53;;;;;;;;;;;21.50;61.70;;;;;;491508;240;1223;-46
2021/08/09 00:17:54;;;;;;;;;;;21.50;61.70;;;;;;491809;240;1075;-46
2021/08/09 00:19:56;;;;;;;;;;;21.60;61.60;;;;;;491622;240;1043;-46
2021/08/09 00:21:57;;;;;;;;;;;21.50;61.60;;;;;;492046;240;999;-46
2021/08/09 00:23:58;;;;;;;;;;;21.50;61.70;;;;;;492099;240;1050;-46
2021/08/09 00:25:59;;;;;;;;;;;21.50;61.70;;;;;;491619;240;1089;-46
2021/08/09 00:28:01;;;;;;;;;;;21.50;61.60;;;;;;491812;240;2140;-46
2021/08/09 00:30:02;;;;;;;;;;;21.60;61.60;;;;;;491678;240;1186;-46
2021/08/09 00:32:03;;;;;;;;;;;21.60;61.90;;;;;;491485;240;1239;-45
2021/08/09 00:34:05;;;;;;;;;;;21.60;62.60;;;;;;492026;240;1084;-46
2021/08/09 00:36:06;;;;;;;;;;;21.50;62.70;;;;;;491576;240;1037;-46
2021/08/09 00:38:08;;;;;;;;;;;21.10;63.70;;;;;;491556;240;1218;-46
2021/08/09 00:40:09;;;;;;;;;;;20.80;65.20;;;;;;491711;240;1033;-46
2021/08/09 00:42:10;;;;;;;;;;;20.40;66.20;;;;;;491468;240;1136;-46
2021/08/09 00:44:14;;;;;;;;;;;20.30;67.10;;;;;;491850;240;1092;-46
2021/08/09 00:46:13;;;;;;;;;;;20.10;67.30;;;;;;491578;240;2666;-46
2021/08/09 00:48:14;;;;;;;;;;;20.00;67.70;;;;;;491687;240;2191;-45
2021/08/09 00:50:16;;;;;;;;;;;20.00;68.10;;;;;;491625;240;1063;-46
2021/08/09 00:52:17;;;;;;;;;;;19.90;68.30;;;;;;491730;240;1229;-46
2021/08/09 00:54:19;;;;;;;;;;;19.80;68.60;;;;;;492023;240;1162;-46
2021/08/09 00:56:20;;;;;;;;;;;19.80;68.70;;;;;;491972;240;1211;-46
2021/08/09 00:58:21;;;;;;;;;;;19.70;68.80;;;;;;491726;240;1199;-46
2021/08/09 01:00:23;;;;;;;;;;;19.60;68.90;;;;;;491803;240;1025;-46
2021/08/09 01:02:24;;;;;;;;;;;19.60;69.00;;;;;;491831;240;1062;-45
2021/08/09 01:04:25;;;;;;;;;;;19.60;69.10;;;;;;491584;240;1053;-45
2021/08/09 01:06:27;;;;;;;;;;;19.50;69.20;;;;;;491523;240;1250;-46
2021/08/09 01:08:28;;;;;;;;;;;19.50;69.10;;;;;;491692;240;2145;-46
2021/08/09 01:10:29;;;;;;;;;;;19.50;69.20;;;;;;491562;240;1286;-46
2021/08/09 01:12:31;;;;;;;;;;;19.50;69.30;;;;;;491598;240;1170;-45
2021/08/09 01:14:32;;;;;;;;;;;19.40;69.30;;;;;;492023;242;1032;-45
2021/08/09 01:16:35;;;;;;;;;;;19.40;69.30;;;;;;491521;240;1064;-46
2021/08/09 01:18:35;;;;;;;;;;;19.40;69.40;;;;;;491601;240;2374;-46
2021/08/09 01:20:36;;;;;;;;;;;19.40;69.40;;;;;;491621;240;1123;-46
2021/08/09 01:22:37;;;;;;;;;;;19.40;69.40;;;;;;491848;240;1137;-46
2021/08/09 01:24:39;;;;;;;;;;;19.30;69.50;;;;;;491603;240;1036;-46
2021/08/09 01:26:40;;;;;;;;;;;19.30;69.60;;;;;;491844;240;1235;-45
2021/08/09 01:28:41;;;;;;;;;;;19.30;69.60;;;;;;491509;240;2192;-45
2021/08/09 01:30:43;;;;;;;;;;;19.30;69.60;;;;;;491986;240;1190;-46
2021/08/09 01:32:44;;;;;;;;;;;19.30;69.60;;;;;;491536;240;1724;-45
2021/08/09 01:34:45;;;;;;;;;;;19.30;69.70;;;;;;491583;240;1035;-46
2021/08/09 01:36:46;;;;;;;;;;;19.30;69.60;;;;;;491630;240;1272;-46
2021/08/09 01:38:48;;;;;;;;;;;19.30;69.70;;;;;;491558;240;1107;-45
2021/08/09 01:40:49;;;;;;;;;;;19.20;69.60;;;;;;491856;240;1033;-46
2021/08/09 01:42:51;;;;;;;;;;;19.20;69.70;;;;;;491900;240;1101;-46
2021/08/09 01:44:52;;;;;;;;;;;19.20;69.80;;;;;;491812;240;1103;-45
2021/08/09 01:46:53;;;;;;;;;;;19.20;69.70;;;;;;491983;240;1087;-45
2021/08/09 01:48:55;;;;;;;;;;;19.20;69.60;;;;;;491805;240;2141;-46
2021/08/09 01:50:56;;;;;;;;;;;19.20;69.60;;;;;;492019;240;1050;-45
2021/08/09 01:52:57;;;;;;;;;;;19.20;69.70;;;;;;491876;240;1343;-46
2021/08/09 01:54:59;;;;;;;;;;;19.20;69.80;;;;;;491974;240;1054;-46
2021/08/09 01:57:00;;;;;;;;;;;19.20;69.70;;;;;;491611;240;1056;-46
2021/08/09 01:59:01;;;;;;;;;;;19.10;69.80;;;;;;491775;240;1293;-46
2021/08/09 02:01:03;;;;;;;;;;;19.10;69.90;;;;;;491575;240;1262;-45
2021/08/09 02:03:04;;;;;;;;;;;19.20;69.80;;;;;;492056;240;1044;-45
2021/08/09 02:05:05;;;;;;;;;;;19.10;69.90;;;;;;492042;240;1078;-45
2021/08/09 02:07:07;;;;;;;;;;;19.10;70.00;;;;;;491478;240;1082;-45
2021/08/09 02:09:08;;;;;;;;;;;19.10;70.00;;;;;;491878;240;2192;-46
2021/08/09 02:11:09;;;;;;;;;;;19.10;69.90;;;;;;491533;240;1104;-46
2021/08/09 02:13:11;;;;;;;;;;;19.00;69.90;;;;;;491576;240;1158;-45
2021/08/09 02:15:12;;;;;;;;;;;19.00;69.90;;;;;;491621;240;1396;-46
2021/08/09 02:17:13;;;;;;;;;;;19.10;70.00;;;;;;491464;240;1076;-45
2021/08/09 02:19:15;;;;;;;;;;;19.00;69.90;;;;;;491738;240;1051;-46
2021/08/09 02:21:16;;;;;;;;;;;19.10;69.90;;;;;;491498;240;1025;-45
2021/08/09 02:23:17;;;;;;;;;;;19.00;69.90;;;;;;491995;240;1096;-45
2021/08/09 02:25:19;;;;;;;;;;;19.00;70.00;;;;;;492019;240;1099;-45
2021/08/09 02:27:20;;;;;;;;;;;19.00;70.10;;;;;;491552;240;1129;-45
2021/08/09 02:29:21;;;;;;;;;;;19.00;70.10;;;;;;491513;240;2176;-46
2021/08/09 02:31:23;;;;;;;;;;;19.00;70.10;;;;;;491661;240;1122;-45
2021/08/09 02:33:24;;;;;;;;;;;19.00;70.00;;;;;;491847;240;1066;-45
2021/08/09 02:35:25;;;;;;;;;;;19.00;70.00;;;;;;492017;240;1081;-46
2021/08/09 02:37:27;;;;;;;;;;;19.00;70.00;;;;;;491570;240;1111;-46
2021/08/09 02:39:28;;;;;;;;;;;19.00;70.00;;;;;;491610;240;1230;-46
2021/08/09 02:41:29;;;;;;;;;;;18.90;70.00;;;;;;491771;240;1193;-46
2021/08/09 02:43:31;;;;;;;;;;;18.90;70.00;;;;;;492035;240;1238;-45
2021/08/09 02:45:32;;;;;;;;;;;18.90;70.00;;;;;;491880;240;1008;-45
2021/08/09 02:47:34;;;;;;;;;;;18.90;70.00;;;;;;491997;240;1054;-45
2021/08/09 02:49:35;;;;;;;;;;;18.90;70.00;;;;;;491552;240;2196;-46
2021/08/09 02:51:36;;;;;;;;;;;18.90;70.00;;;;;;491585;240;1093;-45
2021/08/09 02:53:38;;;;;;;;;;;18.90;70.00;;;;;;491706;240;1067;-46
2021/08/09 02:55:39;;;;;;;;;;;18.90;70.20;;;;;;492082;240;1030;-45
2021/08/09 02:57:40;;;;;;;;;;;18.90;70.20;;;;;;492027;240;1045;-45
2021/08/09 02:59:42;;;;;;;;;;;18.90;70.20;;;;;;491735;240;1229;-46
2021/08/09 03:01:43;;;;;;;;;;;18.90;70.10;;;;;;491804;240;1029;-45
2021/08/09 03:03:44;;;;;;;;;;;18.90;70.10;;;;;;491852;240;1080;-46
2021/08/09 03:05:46;;;;;;;;;;;18.90;70.10;;;;;;491656;240;1009;-46
2021/08/09 03:07:47;;;;;;;;;;;18.90;70.20;;;;;;492043;240;1297;-45
2021/08/09 03:09:48;;;;;;;;;;;18.90;70.10;;;;;;492003;240;2144;-45
2021/08/09 03:11:49;;;;;;;;;;;18.80;70.00;;;;;;491564;240;1140;-45
2021/08/09 03:13:51;;;;;;;;;;;18.90;70.20;;;;;;491534;240;1155;-46
2021/08/09 03:15:52;;;;;;;;;;;18.80;70.10;;;;;;491999;240;1121;-46
2021/08/09 03:17:53;;;;;;;;;;;18.90;70.10;;;;;;491968;240;1077;-45
2021/08/09 03:19:55;;;;;;;;;;;18.90;70.20;;;;;;491783;240;1050;-45
2021/08/09 03:21:56;;;;;;;;;;;18.90;70.00;;;;;;491488;240;1031;-46
2021/08/09 03:23:57;;;;;;;;;;;18.90;70.00;;;;;;492031;240;1066;-45
2021/08/09 03:25:59;;;;;;;;;;;18.90;70.10;;;;;;491921;240;1096;-45
2021/08/09 03:28:02;;;;;;;;;;;18.90;70.00;;;;;;492043;240;1079;-45
2021/08/09 03:30:01;;;;;;;;;;;18.90;70.10;;;;;;491833;240;2203;-46
2021/08/09 03:32:03;;;;;;;;;;;18.80;70.20;;;;;;491948;240;1045;-45
2021/08/09 03:34:04;;;;;;;;;;;18.80;70.10;;;;;;491636;240;1036;-46
2021/08/09 03:36:06;;;;;;;;;;;18.80;70.10;;;;;;491787;240;1241;-45
2021/08/09 03:38:08;;;;;;;;;;;18.80;70.10;;;;;;491589;240;1035;-46
2021/08/09 03:40:09;;;;;;;;;;;18.80;70.20;;;;;;491536;240;1066;-45
2021/08/09 03:42:10;;;;;;;;;;;18.80;70.10;;;;;;491527;240;1080;-45
2021/08/09 03:44:12;;;;;;;;;;;18.80;70.10;;;;;;491575;240;1019;-45
2021/08/09 03:46:14;;;;;;;;;;;18.80;70.20;;;;;;491464;240;1040;-45
2021/08/09 03:48:15;;;;;;;;;;;18.80;70.20;;;;;;491523;240;2620;-45
2021/08/09 03:50:16;;;;;;;;;;;18.80;70.20;;;;;;491774;240;2152;-46
2021/08/09 03:52:17;;;;;;;;;;;18.80;70.30;;;;;;491528;240;1186;-46
2021/08/09 03:54:19;;;;;;;;;;;18.80;70.20;;;;;;491666;240;1105;-45
2021/08/09 03:56:20;;;;;;;;;;;18.80;70.20;;;;;;491900;240;1346;-45
2021/08/09 03:58:21;;;;;;;;;;;18.80;70.30;;;;;;491595;240;1057;-46
2021/08/09 04:00:22;;;;;;;;;;;18.80;70.20;;;;;;491516;240;1157;-45
2021/08/09 04:02:29;;;;;;;;;;;18.80;70.20;;;;;;491469;240;1243;-45
2021/08/09 04:04:26;;;;;;;;;;;18.80;70.20;;;;;;491708;240;2025;-45
2021/08/09 04:06:28;;;;;;;;;;;18.80;70.20;;;;;;491780;240;1211;-45
2021/08/09 04:08:29;;;;;;;;;;;18.80;70.20;;;;;;491892;240;1038;-45
2021/08/09 04:10:30;;;;;;;;;;;18.70;70.30;;;;;;491749;240;2144;-46
2021/08/09 04:12:32;;;;;;;;;;;18.70;70.20;;;;;;491856;240;1310;-46
2021/08/09 04:14:33;;;;;;;;;;;18.70;70.40;;;;;;491845;240;1101;-45
2021/08/09 04:16:34;;;;;;;;;;;18.80;70.30;;;;;;491490;240;1187;-46
2021/08/09 04:18:36;;;;;;;;;;;18.70;70.30;;;;;;491883;240;1174;-46
2021/08/09 04:20:37;;;;;;;;;;;18.70;70.30;;;;;;491846;240;1056;-46
2021/08/09 04:22:39;;;;;;;;;;;18.80;70.20;;;;;;491463;240;1147;-45
2021/08/09 04:24:40;;;;;;;;;;;18.80;70.40;;;;;;491570;240;1108;-46
2021/08/09 04:26:41;;;;;;;;;;;18.80;70.30;;;;;;491438;240;1140;-46
2021/08/09 04:28:43;;;;;;;;;;;18.70;70.30;;;;;;491693;240;1058;-46
2021/08/09 04:30:44;;;;;;;;;;;18.70;70.30;;;;;;491717;240;2147;-45
2021/08/09 04:32:45;;;;;;;;;;;18.70;70.30;;;;;;491464;240;1215;-45
2021/08/09 04:34:47;;;;;;;;;;;18.70;70.20;;;;;;491485;240;1069;-46
2021/08/09 04:36:48;;;;;;;;;;;18.70;70.20;;;;;;491809;240;1177;-45
2021/08/09 04:38:49;;;;;;;;;;;18.70;70.20;;;;;;491458;240;1054;-45
2021/08/09 04:40:51;;;;;;;;;;;18.70;70.30;;;;;;491666;240;1050;-45
2021/08/09 04:42:52;;;;;;;;;;;18.70;70.30;;;;;;491546;240;1062;-45
2021/08/09 04:44:53;;;;;;;;;;;18.70;70.30;;;;;;491517;240;1059;-45
2021/08/09 04:46:57;;;;;;;;;;;18.70;70.30;;;;;;491403;240;1124;-45
2021/08/09 04:48:57;;;;;;;;;;;18.70;70.30;;;;;;491414;240;1209;-45
2021/08/09 04:50:58;;;;;;;;;;;18.70;70.30;;;;;;491499;240;2204;-46
2021/08/09 04:52:59;;;;;;;;;;;18.60;70.30;;;;;;491305;240;1118;-45
2021/08/09 04:55:00;;;;;;;;;;;18.70;70.40;;;;;;491318;240;1041;-46
2021/08/09 04:57:02;;;;;;;;;;;18.70;70.40;;;;;;491414;240;1250;-45
2021/08/09 04:59:03;;;;;;;;;;;18.70;70.30;;;;;;491751;240;1066;-45
2021/08/09 05:01:05;;;;;;;;;;;18.70;70.40;;;;;;491592;240;1281;-46
2021/08/09 05:03:06;;;;;;;;;;;18.70;70.50;;;;;;491421;240;1118;-45
2021/08/09 05:05:07;;;;;;;;;;;18.60;70.50;;;;;;491428;240;1056;-46
2021/08/09 05:07:08;;;;;;;;;;;18.60;70.40;;;;;;491265;240;1105;-46
2021/08/09 05:09:10;;;;;;;;;;;19.00;69.40;;;;;;491409;240;1075;-46
2021/08/09 05:11:12;;;;;;;;;;;19.30;68.30;;;;;;491264;240;2133;-46
2021/08/09 05:13:13;;;;;;;;;;;19.50;67.20;;;;;;491392;240;1395;-45
2021/08/09 05:15:14;;;;;;;;;;;19.70;66.50;;;;;;491298;240;1098;-46
2021/08/09 05:17:15;;;;;;;;;;;19.90;66.00;;;;;;491315;240;1208;-46
2021/08/09 05:19:17;;;;;;;;;;;20.00;65.50;;;;;;491556;240;1082;-45
2021/08/09 05:21:18;;;;;;;;;;;20.10;65.20;;;;;;491326;240;1045;-46
2021/08/09 05:23:19;;;;;;;;;;;20.10;64.90;;;;;;491342;240;1195;-46
2021/08/09 05:25:21;;;;;;;;;;;20.20;64.60;;;;;;491513;240;1099;-46
2021/08/09 05:27:22;;;;;;;;;;;20.30;64.50;;;;;;491203;240;1129;-46
2021/08/09 05:29:23;;;;;;;;;;;20.30;64.30;;;;;;491227;240;1093;-46
2021/08/09 05:31:25;;;;;;;;;;;20.40;64.20;;;;;;491354;240;2183;-46
2021/08/09 05:33:26;;;;;;;;;;;20.40;64.00;;;;;;491355;240;1056;-46
2021/08/09 05:35:27;;;;;;;;;;;20.40;63.90;;;;;;491388;240;1035;-46
2021/08/09 05:37:31;;;;;;;;;;;20.50;63.70;;;;;;491411;240;1080;-46
2021/08/09 05:39:30;;;;;;;;;;;20.50;63.60;;;;;;491615;240;2412;-46
2021/08/09 05:41:31;;;;;;;;;;;20.60;63.60;;;;;;491157;240;1041;-46
2021/08/09 05:43:33;;;;;;;;;;;20.60;63.50;;;;;;491272;240;1117;-46
2021/08/09 05:45:34;;;;;;;;;;;20.60;63.40;;;;;;491219;240;1141;-46
2021/08/09 05:47:35;;;;;;;;;;;20.60;63.30;;;;;;491058;240;1103;-46
2021/08/09 05:49:37;;;;;;;;;;;20.70;63.30;;;;;;491477;240;1160;-46
2021/08/09 05:51:40;;;;;;;;;;;20.70;63.20;;;;;;491169;240;2252;-46
2021/08/09 05:53:40;;;;;;;;;;;20.70;63.10;;;;;;491334;240;2857;-46
2021/08/09 05:55:41;;;;;;;;;;;20.80;63.10;;;;;;491252;240;1062;-46
2021/08/09 05:57:42;;;;;;;;;;;20.80;63.10;;;;;;491190;240;1058;-46
2021/08/09 05:59:44;;;;;;;;;;;20.80;63.00;;;;;;491082;240;1119;-46
2021/08/09 06:01:45;;;;;;;;;;;20.80;62.80;;;;;;491070;240;1980;-46
2021/08/09 06:03:46;;;;;;;;;;;20.90;62.80;;;;;;491173;240;1182;-46
2021/08/09 06:05:47;;;;;;;;;;;20.90;62.80;;;;;;491278;240;1176;-46
2021/08/09 06:07:49;;;;;;;;;;;21.00;62.70;;;;;;491138;240;1142;-45
2021/08/09 06:09:50;;;;;;;;;;;20.90;62.50;;;;;;491110;240;2184;-46
2021/08/09 06:11:51;;;;;;;;;;;21.10;62.50;;;;;;491177;240;1217;-46
2021/08/09 06:13:53;;;;;;;;;;;21.10;62.40;;;;;;491195;240;1123;-46
2021/08/09 06:15:54;;;;;;;;;;;21.10;62.20;;;;;;491026;240;1368;-46
2021/08/09 06:17:55;;;;;;;;;;;21.10;62.10;;;;;;491142;240;1342;-46
2021/08/09 06:19:57;;;;;;;;;;;21.10;62.10;;;;;;491259;240;1081;-46
2021/08/09 06:21:58;;;;;;;;;;;21.10;62.20;;;;;;491166;240;1340;-46
2021/08/09 06:23:59;;;;;;;;;;;21.10;62.20;;;;;;490987;240;1178;-46
2021/08/09 06:26:01;;;;;;;;;;;21.10;62.20;;;;;;491035;240;1101;-46
2021/08/09 06:28:02;;;;;;;;;;;21.20;61.90;;;;;;490932;240;1064;-46
2021/08/09 06:30:04;;;;;;;;;;;21.30;61.70;;;;;;490898;240;2187;-46
2021/08/09 06:32:05;;;;;;;;;;;21.30;61.70;;;;;;490835;240;1319;-46
2021/08/09 06:34:06;;;;;;;;;;;21.20;61.90;;;;;;490982;240;1050;-46
2021/08/09 06:36:08;;;;;;;;;;;21.20;61.90;;;;;;491139;240;1480;-46
2021/08/09 06:38:09;;;;;;;;;;;21.20;62.00;;;;;;490917;240;1070;-46
2021/08/09 06:40:10;;;;;;;;;;;21.20;62.10;;;;;;491056;240;1145;-46
2021/08/09 06:42:12;;;;;;;;;;;21.20;62.00;;;;;;490642;240;1263;-46
2021/08/09 06:44:13;;;;;;;;;;;21.20;61.90;;;;;;490941;240;1144;-46
2021/08/09 06:46:14;;;;;;;;;;;21.30;61.70;;;;;;490886;240;1434;-46
2021/08/09 06:48:16;;;;;;;;;;;21.30;61.90;;;;;;490775;240;1127;-46
2021/08/09 06:50:17;;;;;;;;;;;21.30;61.70;;;;;;490785;240;2188;-46
2021/08/09 06:52:18;;;;;;;;;;;21.40;61.60;;;;;;490699;240;1099;-46
2021/08/09 06:54:23;;;;;;;;;;;21.50;61.40;;;;;;490873;240;1075;-46
2021/08/09 06:56:21;;;;;;;;;;;21.40;61.20;;;;;;490765;240;1223;-46
2021/08/09 06:58:22;;;;;;;;;;;21.40;61.40;;;;;;490753;240;1137;-46
2021/08/09 07:00:24;;;;;;;;;;;21.40;61.50;;;;;;490684;240;1142;-46
2021/08/09 07:02:26;;;;;;;;;;;21.40;61.50;;;;;;490771;240;1145;-46
2021/08/09 07:04:26;;;;;;;;;;;21.40;61.60;;;;;;491115;240;2217;-46
2021/08/09 07:06:28;;;;;;;;;;;21.40;61.50;;;;;;490712;240;1252;-46
2021/08/09 07:08:29;;;;;;;;;;;21.50;61.50;;;;;;490803;240;1201;-46
2021/08/09 07:10:30;;;;;;;;;;;21.40;61.50;;;;;;490761;240;2157;-46
2021/08/09 07:12:32;;;;;;;;;;;21.50;61.50;;;;;;490681;240;1402;-46
2021/08/09 07:14:33;;;;;;;;;;;21.50;61.40;;;;;;490619;240;1259;-45
2021/08/09 07:16:34;;;;;;;;;;;21.50;61.30;;;;;;490620;240;1145;-46
2021/08/09 07:18:36;;;;;;;;;;;21.60;61.30;;;;;;490745;240;1209;-46
2021/08/09 07:20:37;;;;;;;;;;;21.60;61.30;;;;;;490683;240;1102;-46
2021/08/09 07:22:39;;;;;;;;;;;21.60;61.30;;;;;;490575;240;1396;-46
2021/08/09 07:24:40;;;;;;;;;;;21.60;61.30;;;;;;490712;240;1095;-46
2021/08/09 07:26:41;;;;;;;;;;;21.60;61.30;;;;;;490574;240;1186;-46
2021/08/09 07:28:43;;;;;;;;;;;21.60;61.20;;;;;;490728;240;1217;-46
2021/08/09 07:30:44;;;;;;;;;;;21.60;61.30;;;;;;490663;240;2192;-46
2021/08/09 07:32:45;;;;;;;;;;;21.60;61.20;;;;;;490902;240;1262;-46
2021/08/09 07:34:47;;;;;;;;;;;21.70;61.20;;;;;;490393;240;1094;-47
2021/08/09 07:36:48;;;;;;;;;;;21.70;61.10;;;;;;490498;240;1204;-46
2021/08/09 07:38:49;;;;;;;;;;;21.70;61.10;;;;;;490552;240;1304;-46
2021/08/09 07:40:51;;;;;;;;;;;21.60;61.10;;;;;;490555;240;1088;-46
2021/08/09 07:42:52;;;;;;;;;;;21.70;61.10;;;;;;490455;240;1369;-46
2021/08/09 07:44:53;;;;;;;;;;;21.70;61.10;;;;;;490645;240;1191;-46
2021/08/09 07:46:55;;;;;;;;;;;21.70;61.10;;;;;;490636;240;1084;-46
2021/08/09 07:48:56;;;;;;;;;;;21.70;61.10;;;;;;490746;240;1207;-46
2021/08/09 07:50:57;;;;;;;;;;;21.70;61.10;;;;;;490795;240;2140;-47
2021/08/09 07:52:58;;;;;;;;;;;21.70;61.10;;;;;;490665;240;1107;-46
2021/08/09 07:55:01;;;;;;;;;;;21.70;61.10;;;;;;490662;240;1054;-46
2021/08/09 07:57:03;;;;;;;;;;;21.70;62.30;;;;;;490555;240;2238;-46
2021/08/09 07:59:03;;;;;;;;;;;21.70;62.10;;;;;;490618;240;2167;-46
2021/08/09 08:01:04;;;;;;;;;;;21.30;63.20;;;;;;490626;240;1093;-46
2021/08/09 08:03:05;;;;;;;;;;;20.90;64.70;;;;;;490652;240;1189;-46
2021/08/09 08:05:07;;;;;;;;;;;20.50;65.80;;;;;;490555;240;1130;-46
2021/08/09 08:07:08;;;;;;;;;;;20.30;66.60;;;;;;490574;240;1131;-45
2021/08/09 08:09:10;;;;;;;;;;;20.20;67.10;;;;;;490704;240;1240;-46
2021/08/09 08:11:11;;;;;;;;;;;20.10;67.60;;;;;;490619;240;2184;-45
2021/08/09 08:13:12;;;;;;;;;;;19.90;68.00;;;;;;490614;240;1063;-46
2021/08/09 08:15:14;;;;;;;;;;;19.90;68.30;;;;;;490474;240;1105;-45
2021/08/09 08:17:15;;;;;;;;;;;19.80;68.50;;;;;;490710;240;1112;-46
2021/08/09 08:19:16;;;;;;;;;;;19.80;68.70;;;;;;490701;240;1166;-45
2021/08/09 08:21:18;;;;;;;;;;;19.70;68.60;;;;;;490747;240;1306;-46
2021/08/09 08:23:19;;;;;;;;;;;19.70;68.70;;;;;;490896;240;1132;-46
2021/08/09 08:25:20;;;;;;;;;;;19.60;68.70;;;;;;490675;240;1197;-46
2021/08/09 08:27:22;;;;;;;;;;;19.60;68.80;;;;;;490788;240;1305;-46
2021/08/09 08:29:23;;;;;;;;;;;19.60;69.10;;;;;;490641;240;1076;-46
2021/08/09 08:31:24;;;;;;;;;;;19.50;69.10;;;;;;490857;240;2137;-45
2021/08/09 08:33:25;;;;;;;;;;;19.50;69.00;;;;;;490804;240;1321;-46
2021/08/09 08:35:27;;;;;;;;;;;19.50;69.10;;;;;;490692;240;1148;-46
2021/08/09 08:37:28;;;;;;;;;;;19.40;69.10;;;;;;490791;240;1236;-46
2021/08/09 08:39:30;;;;;;;;;;;19.40;69.20;;;;;;490783;240;1112;-46
2021/08/09 08:41:31;;;;;;;;;;;19.40;69.40;;;;;;490653;240;1233;-45
2021/08/09 08:43:32;;;;;;;;;;;19.40;69.40;;;;;;490619;240;1103;-46
2021/08/09 08:45:34;;;;;;;;;;;19.40;69.40;;;;;;490581;240;1160;-46
2021/08/09 08:47:35;;;;;;;;;;;19.30;69.50;;;;;;490601;240;1345;-45
2021/08/09 08:49:36;;;;;;;;;;;19.30;69.50;;;;;;490681;240;1225;-46
2021/08/09 08:51:38;;;;;;;;;;;19.30;69.60;;;;;;490519;240;2180;-45
2021/08/09 08:53:40;;;;;;;;;;;19.30;69.50;;;;;;490778;240;1097;-46
2021/08/09 08:55:41;;;;;;;;;;;19.30;69.40;;;;;;490659;240;1086;-45
2021/08/09 08:57:42;;;;;;;;;;;19.30;69.60;;;;;;490536;240;1370;-46
2021/08/09 08:59:43;;;;;;;;;;;19.30;69.60;;;;;;490519;240;1178;-46
2021/08/09 09:01:45;;;;;;;;;;;19.30;69.60;;;;;;490512;240;1080;-46
2021/08/09 09:03:46;;;;;;;;;;;19.20;69.60;;;;;;490526;240;1452;-46
2021/08/09 09:05:48;;;;;;;;;;;19.20;69.60;;;;;;490515;240;1116;-46
2021/08/09 09:07:49;;;;;;;;;;;19.20;69.60;;;;;;490639;240;1073;-45
2021/08/09 09:09:50;;;;;;;;;;;19.20;69.50;;;;;;490580;240;1103;-45
2021/08/09 09:11:52;;;;;;;;;;;19.20;69.60;;;;;;490479;240;2188;-45
2021/08/09 09:13:53;;;;;;;;;;;19.20;69.80;;;;;;490616;240;1115;-46
2021/08/09 09:15:54;;;;;;;;;;;19.20;69.70;;;;;;490553;240;1183;-46
2021/08/09 09:17:56;;;;;;;;;;;19.20;69.80;;;;;;490606;240;1074;-45
2021/08/09 09:19:57;;;;;;;;;;;19.20;69.80;;;;;;490516;240;1434;-46
2021/08/09 09:21:58;;;;;;;;;;;19.20;69.80;;;;;;490505;240;1212;-46
2021/08/09 09:24:00;;;;;;;;;;;19.20;69.70;;;;;;490590;240;1232;-46
2021/08/09 09:26:01;;;;;;;;;;;19.10;69.70;;;;;;490418;240;1101;-46
2021/08/09 09:28:02;;;;;;;;;;;19.10;69.80;;;;;;490514;240;1394;-45
2021/08/09 09:30:04;;;;;;;;;;;19.10;69.80;;;;;;490721;240;1386;-46
2021/08/09 09:32:05;;;;;;;;;;;19.10;69.80;;;;;;490550;240;2199;-46
2021/08/09 09:34:06;;;;;;;;;;;19.10;69.80;;;;;;490604;240;1352;-46
2021/08/09 09:36:08;;;;;;;;;;;19.10;69.80;;;;;;490524;240;1340;-46
2021/08/09 09:38:09;;;;;;;;;;;19.10;69.90;;;;;;490641;240;1323;-46
2021/08/09 09:40:10;;;;;;;;;;;19.00;69.80;;;;;;490738;240;1081;-45
2021/08/09 09:42:12;;;;;;;;;;;19.00;70.00;;;;;;490600;240;1117;-45
2021/08/09 09:44:13;;;;;;;;;;;19.00;69.90;;;;;;490425;241;1129;-46
2021/08/09 09:46:14;;;;;;;;;;;19.00;70.00;;;;;;490381;240;1141;-45
2021/08/09 09:48:16;;;;;;;;;;;19.00;69.90;;;;;;490667;240;1105;-46
2021/08/09 09:50:17;;;;;;;;;;;19.00;70.00;;;;;;490575;240;1309;-46
2021/08/09 09:52:18;;;;;;;;;;;19.00;70.00;;;;;;490560;240;2180;-46
2021/08/09 09:54:20;;;;;;;;;;;19.00;70.00;;;;;;490656;240;1287;-46
2021/08/09 09:56:21;;;;;;;;;;;19.00;69.90;;;;;;490516;240;1095;-46
2021/08/09 09:58:22;;;;;;;;;;;19.00;70.00;;;;;;490590;240;1183;-46
2021/08/09 10:00:24;;;;;;;;;;;19.00;70.00;;;;;;490694;240;1069;-46
2021/08/09 10:02:25;;;;;;;;;;;19.00;70.00;;;;;;490612;240;1099;-45
2021/08/09 10:04:26;;;;;;;;;;;19.00;70.10;;;;;;490584;240;1451;-45
2021/08/09 10:06:27;;;;;;;;;;;18.90;70.10;;;;;;490673;240;1081;-46
2021/08/09 10:08:29;;;;;;;;;;;18.90;70.00;;;;;;490666;240;1336;-45
2021/08/09 10:10:30;;;;;;;;;;;18.90;70.00;;;;;;490694;240;1237;-45
2021/08/09 10:12:31;;;;;;;;;;;18.90;70.10;;;;;;490608;240;2179;-45
2021/08/09 10:14:33;;;;;;;;;;;18.90;70.10;;;;;;490676;240;1123;-45
2021/08/09 10:16:34;;;;;;;;;;;18.90;70.10;;;;;;490592;240;1234;-46
2021/08/09 10:18:35;;;;;;;;;;;18.90;70.20;;;;;;490669;240;1181;-45
2021/08/09 10:20:37;;;;;;;;;;;18.90;70.10;;;;;;490689;240;1171;-46
2021/08/09 10:22:38;;;;;;;;;;;18.90;70.10;;;;;;490596;240;1229;-47
2021/08/09 10:24:39;;;;;;;;;;;18.90;70.10;;;;;;490588;240;1112;-46
2021/08/09 10:26:41;;;;;;;;;;;18.90;70.30;;;;;;490617;240;1156;-46
2021/08/09 10:28:42;;;;;;;;;;;18.90;70.20;;;;;;490656;240;1109;-46
2021/08/09 10:30:43;;;;;;;;;;;18.90;70.20;;;;;;490579;240;1144;-47
2021/08/09 10:32:45;;;;;;;;;;;18.90;70.30;;;;;;490538;240;2180;-46
2021/08/09 10:34:47;;;;;;;;;;;18.90;70.20;;;;;;490530;240;1228;-46
2021/08/09 10:36:48;;;;;;;;;;;18.90;70.20;;;;;;490541;240;1082;-47
2021/08/09 10:38:49;;;;;;;;;;;18.90;70.10;;;;;;490753;240;1116;-47
2021/08/09 10:40:51;;;;;;;;;;;18.90;70.10;;;;;;490746;240;1147;-47
2021/08/09 10:42:52;;;;;;;;;;;18.90;70.20;;;;;;490723;240;1260;-46
2021/08/09 10:44:53;;;;;;;;;;;18.90;70.20;;;;;;490717;240;1215;-46
2021/08/09 10:46:55;;;;;;;;;;;18.90;70.30;;;;;;490621;240;1250;-46
2021/08/09 10:48:56;;;;;;;;;;;18.80;70.20;;;;;;490735;240;1230;-47
2021/08/09 10:50:57;;;;;;;;;;;18.80;70.20;;;;;;490600;240;1304;-47
2021/08/09 10:52:58;;;;;;;;;;;18.80;70.20;;;;;;491002;240;2189;-47
2021/08/09 10:55:00;;;;;;;;;;;18.80;70.20;;;;;;491485;240;888;-47
2021/08/09 10:57:01;;;;;;;;;;;18.80;70.20;;;;;;491439;240;1133;-47
2021/08/09 10:59:02;;;;;;;;;;;18.80;70.20;;;;;;490789;240;1125;-47
2021/08/09 11:01:07;;;;;;;;;;;18.80;70.20;;;;;;490788;240;1300;-46
2021/08/09 11:03:08;;;;;;;;;;;18.80;70.20;;;;;;490696;240;1131;-46
2021/08/09 11:05:09;;;;;;;;;;;18.80;70.20;;;;;;490627;240;1183;-46
2021/08/09 11:07:10;;;;;;;;;;;18.80;70.20;;;;;;490677;240;1212;-46
2021/08/09 11:09:12;;;;;;;;;;;18.80;70.20;;;;;;490797;240;1124;-46
2021/08/09 11:11:13;;;;;;;;;;;18.80;70.30;;;;;;490940;240;1153;-47
2021/08/09 11:13:14;;;;;;;;;;;18.80;70.20;;;;;;490590;240;2133;-47
2021/08/09 11:15:16;;;;;;;;;;;18.80;70.30;;;;;;490589;240;1108;-46
2021/08/09 11:17:17;;;;;;;;;;;18.80;70.20;;;;;;490640;240;1161;-47
2021/08/09 11:19:18;;;;;;;;;;;18.80;70.30;;;;;;490864;240;1129;-46
2021/08/09 11:21:20;;;;;;;;;;;18.80;70.30;;;;;;490920;240;1202;-46
2021/08/09 11:23:21;;;;;;;;;;;18.80;70.40;;;;;;490857;240;1280;-46
2021/08/09 11:25:22;;;;;;;;;;;18.80;70.30;;;;;;490774;240;1117;-46
2021/08/09 11:27:24;;;;;;;;;;;18.80;70.30;;;;;;490698;240;1502;-46
2021/08/09 11:29:25;;;;;;;;;;;18.80;70.40;;;;;;490607;240;1064;-46
2021/08/09 11:31:27;;;;;;;;;;;18.80;70.40;;;;;;490587;240;1150;-47
2021/08/09 11:33:28;;;;;;;;;;;18.80;70.40;;;;;;490743;240;2183;-46
2021/08/09 11:35:29;;;;;;;;;;;18.80;70.30;;;;;;490560;240;1341;-47
2021/08/09 11:37:31;;;;;;;;;;;18.70;70.40;;;;;;490750;240;1236;-47
2021/08/09 11:39:32;;;;;;;;;;;18.80;70.40;;;;;;490688;240;1102;-47
2021/08/09 11:41:33;;;;;;;;;;;18.80;70.40;;;;;;490692;240;1141;-47
2021/08/09 11:43:35;;;;;;;;;;;18.70;70.30;;;;;;490649;240;1079;-47
2021/08/09 11:45:36;;;;;;;;;;;18.70;70.40;;;;;;490522;240;1140;-46
2021/08/09 11:47:37;;;;;;;;;;;18.70;70.30;;;;;;490632;240;1204;-47
2021/08/09 11:49:39;;;;;;;;;;;18.70;70.50;;;;;;490701;240;1072;-47
2021/08/09 11:51:40;;;;;;;;;;;18.70;70.40;;;;;;490699;240;1118;-47
2021/08/09 11:53:41;;;;;;;;;;;18.80;70.40;;;;;;490546;240;2136;-47
2021/08/09 11:55:43;;;;;;;;;;;18.70;70.30;;;;;;490489;240;1137;-46
2021/08/09 11:57:44;;;;;;;;;;;19.00;69.50;;;;;;490459;240;1274;-46